createdAt,value
2024-03-04T00:02:11.510Z,21.42
2024-03-04T00:04:40.898Z,21.67
2024-03-04T00:07:07.512Z,21.05
2024-03-04T00:09:34.029Z,20.67
2024-03-04T00:12:00.606Z,21.13
2024-03-04T00:14:27.717Z,21.30
2024-03-04T00:16:54.461Z,20.13
2024-03-04T00:19:20.988Z,20.40
2024-03-04T00:21:47.522Z,20.90
2024-03-04T00:24:14.165Z,22.20
2024-03-04T00:29:08.572Z,20.55
2024-03-04T00:31:35.130Z,21.33
2024-03-04T00:34:01.724Z,21.17
2024-03-04T00:36:28.260Z,20.63
2024-03-04T00:38:58.172Z,21.95
2024-03-04T00:41:28.525Z,21.23
2024-03-04T00:43:55.138Z,19.65
2024-03-04T00:46:24.161Z,21.07
2024-03-04T00:48:50.965Z,20.27
2024-03-04T00:51:17.519Z,22.58
2024-03-04T00:53:45.820Z,20.63
2024-03-04T00:56:14.106Z,21.48
2024-03-04T00:58:41.511Z,20.00
2024-03-04T01:01:08.986Z,21.10
2024-03-04T01:03:36.146Z,21.88
2024-03-04T01:06:03.791Z,22.48
2024-03-04T01:08:30.249Z,21.95
2024-03-04T01:10:57.529Z,22.13
2024-03-04T01:13:24.561Z,21.25
2024-03-04T01:15:51.094Z,20.55
2024-03-04T01:18:21.498Z,22.10
2024-03-04T01:20:48.359Z,20.98
2024-03-04T01:23:14.889Z,21.27
2024-03-04T01:25:41.665Z,22.27
2024-03-04T01:28:08.268Z,23.05
2024-03-04T01:30:34.846Z,23.75
2024-03-04T01:33:03.442Z,22.10
2024-03-04T01:35:30.308Z,21.90
2024-03-04T01:37:56.792Z,22.73
2024-03-04T01:40:23.646Z,21.75
2024-03-04T01:42:50.188Z,22.15
2024-03-04T01:45:27.043Z,22.45
2024-03-04T01:47:55.225Z,23.10
2024-03-04T01:50:26.066Z,22.85
2024-03-04T01:52:53.552Z,22.92
2024-03-04T01:55:21.155Z,22.27
2024-03-04T01:57:49.919Z,22.10
2024-03-04T02:00:18.340Z,22.47
2024-03-04T02:02:44.924Z,21.45
2024-03-04T02:05:12.697Z,22.83
2024-03-04T02:07:39.869Z,21.90
2024-03-04T02:10:07.688Z,23.42
2024-03-04T02:12:38.231Z,21.10
2024-03-04T02:15:05.316Z,20.30
2024-03-04T02:17:31.894Z,21.27
2024-03-04T02:20:05.856Z,21.92
2024-03-04T02:22:32.466Z,22.38
2024-03-04T02:24:58.934Z,20.70
2024-03-04T02:27:25.388Z,20.70
2024-03-04T02:29:51.854Z,22.75
2024-03-04T02:32:18.472Z,22.52
2024-03-04T02:34:46.544Z,23.38
2024-03-04T02:37:16.717Z,23.80
2024-03-04T02:39:44.074Z,24.08
2024-03-04T02:42:10.585Z,21.48
2024-03-04T02:44:37.078Z,20.92
2024-03-04T02:47:03.658Z,21.73
2024-03-04T02:49:31.279Z,21.57
2024-03-04T02:51:57.856Z,21.58
2024-03-04T02:54:24.656Z,21.17
2024-03-04T02:56:52.518Z,22.38
2024-03-04T02:59:20.322Z,23.13
2024-03-04T03:01:50.224Z,22.00
2024-03-04T03:04:17.153Z,22.75
2024-03-04T03:06:44.059Z,23.40
2024-03-04T03:09:11.486Z,23.77
2024-03-04T03:11:38.019Z,23.55
2024-03-04T03:14:04.907Z,21.10
2024-03-04T03:16:31.750Z,21.00
2024-03-04T03:18:58.541Z,20.30
2024-03-04T03:21:25.119Z,21.27
2024-03-04T03:23:52.021Z,22.58
2024-03-04T03:26:19.234Z,21.13
2024-03-04T03:28:46.383Z,23.35
2024-03-04T03:31:13.128Z,19.95
2024-03-04T03:33:40.004Z,20.85
2024-03-04T03:36:07.071Z,20.48
2024-03-04T03:38:34.688Z,20.53
2024-03-04T03:41:02.303Z,19.65
2024-03-04T03:43:28.899Z,19.75
2024-03-04T03:45:55.561Z,20.00
2024-03-04T03:48:22.162Z,21.55
2024-03-04T03:50:48.704Z,21.70
2024-03-04T03:53:15.188Z,21.67
2024-03-04T03:55:41.801Z,23.23
2024-03-04T03:58:08.402Z,25.65
2024-03-04T04:00:37.456Z,25.77
2024-03-04T04:03:04.401Z,23.83
2024-03-04T04:05:30.830Z,24.98
2024-03-04T04:07:59.069Z,25.42
2024-03-04T04:10:25.721Z,25.52
2024-03-04T04:12:54.877Z,26.17
2024-03-04T04:15:21.466Z,27.20
2024-03-04T04:17:47.997Z,26.90
2024-03-04T04:20:14.604Z,26.08
2024-03-04T04:22:41.882Z,25.38
2024-03-04T04:25:10.397Z,27.73
2024-03-04T04:27:36.828Z,27.10
2024-03-04T04:30:03.491Z,26.30
2024-03-04T04:32:30.034Z,26.58
2024-03-04T04:34:56.494Z,27.45
2024-03-04T04:37:23.005Z,28.17
2024-03-04T04:39:49.480Z,28.83
2024-03-04T04:42:16.957Z,28.88
2024-03-04T04:44:43.529Z,29.30
2024-03-04T04:47:10.066Z,26.98
2024-03-04T04:49:36.678Z,29.40
2024-03-04T04:52:03.979Z,28.63
2024-03-04T04:54:30.742Z,27.60
2024-03-04T04:56:57.211Z,28.58
2024-03-04T04:59:23.747Z,27.85
2024-03-04T05:01:50.286Z,27.95
2024-03-04T05:04:32.319Z,25.30
2024-03-04T05:07:05.325Z,27.52
2024-03-04T05:09:31.948Z,26.42
2024-03-04T05:11:58.409Z,27.30
2024-03-04T05:14:24.867Z,26.52
2024-03-04T05:16:51.368Z,25.47
2024-03-04T05:19:18.422Z,26.13
2024-03-04T05:21:44.912Z,27.17
2024-03-04T05:24:11.574Z,25.60
2024-03-04T05:26:38.151Z,26.13
2024-03-04T05:29:05.786Z,25.90
2024-03-04T05:31:33.828Z,27.08
2024-03-04T05:34:00.630Z,26.27
2024-03-04T05:36:27.714Z,23.48
2024-03-04T05:38:54.224Z,23.48
2024-03-04T05:41:20.659Z,24.97
2024-03-04T05:43:47.111Z,24.85
2024-03-04T05:46:13.702Z,27.05
2024-03-04T05:48:40.164Z,25.98
2024-03-04T05:51:06.897Z,27.83
2024-03-04T05:53:33.536Z,26.10
2024-03-04T05:56:00.070Z,26.90
2024-03-04T05:58:27.578Z,28.63
2024-03-04T06:00:54.272Z,26.40
2024-03-04T06:03:20.776Z,26.15
2024-03-04T06:05:47.278Z,25.90
2024-03-04T06:08:15.782Z,26.70
2024-03-04T06:10:43.408Z,24.65
2024-03-04T06:13:10.347Z,25.80
2024-03-04T06:15:36.888Z,26.92
2024-03-04T06:18:03.584Z,25.63
2024-03-04T06:20:30.163Z,26.63
2024-03-04T06:22:56.672Z,27.05
2024-03-04T06:25:23.233Z,26.38
2024-03-04T06:30:17.668Z,25.90
2024-03-04T06:32:45.324Z,27.55
2024-03-04T06:35:12.043Z,28.23
2024-03-04T06:37:39.106Z,26.02
2024-03-04T06:40:07.364Z,28.73
2024-03-04T06:42:34.401Z,27.27
2024-03-04T06:45:00.822Z,30.05
2024-03-04T06:47:27.519Z,29.45
2024-03-04T06:49:54.017Z,29.52
2024-03-04T06:52:20.538Z,29.02
2024-03-04T06:54:49.810Z,28.93
2024-03-04T06:57:18.417Z,30.42
2024-03-04T06:59:45.201Z,30.58
2024-03-04T07:02:11.733Z,33.03
2024-03-04T07:04:38.320Z,31.02
2024-03-04T07:07:04.894Z,30.70
2024-03-04T07:09:31.408Z,30.83
2024-03-04T07:11:57.973Z,31.70
2024-03-04T07:14:24.431Z,32.10
2024-03-04T07:16:50.908Z,30.58
2024-03-04T07:19:17.448Z,29.47
2024-03-04T07:21:44.037Z,34.15
2024-03-04T07:24:10.516Z,33.88
2024-03-04T07:26:37.132Z,34.22
2024-03-04T07:29:08.319Z,34.42
2024-03-04T07:31:38.724Z,32.10
2024-03-04T07:34:06.940Z,33.22
2024-03-04T07:36:33.385Z,32.88
2024-03-04T07:38:59.838Z,34.67
2024-03-04T07:41:27.267Z,32.83
2024-03-04T07:43:53.779Z,36.20
2024-03-04T07:46:20.353Z,36.03
2024-03-04T07:48:46.844Z,38.05
2024-03-04T07:51:13.327Z,34.22
2024-03-04T07:53:39.791Z,36.85
2024-03-04T07:56:06.647Z,36.87
2024-03-04T07:58:34.475Z,34.03
2024-03-04T08:01:01.647Z,38.95
2024-03-04T08:03:28.281Z,38.33
2024-03-04T08:05:54.929Z,37.85
2024-03-04T08:08:23.134Z,39.97
2024-03-04T08:10:49.924Z,35.60
2024-03-04T08:13:16.420Z,37.30
2024-03-04T08:15:42.936Z,37.53
2024-03-04T08:18:12.501Z,39.90
2024-03-04T08:20:38.990Z,37.60
2024-03-04T08:23:05.489Z,38.10
2024-03-04T08:25:32.359Z,41.67
2024-03-04T08:27:59.273Z,41.80
2024-03-04T08:30:26.198Z,38.83
2024-03-04T08:32:54.562Z,40.97
2024-03-04T08:35:21.831Z,38.35
2024-03-04T08:37:48.769Z,38.42
2024-03-04T08:40:15.867Z,35.63
2024-03-04T08:42:43.303Z,37.88
2024-03-04T08:45:10.697Z,38.10
2024-03-04T08:47:37.278Z,36.47
2024-03-04T08:50:04.623Z,36.70
2024-03-04T08:52:31.344Z,33.22
2024-03-04T08:54:57.955Z,34.20
2024-03-04T08:57:24.513Z,34.03
2024-03-04T08:59:50.937Z,33.13
2024-03-04T09:02:17.492Z,33.00
2024-03-04T09:04:44.450Z,33.53
2024-03-04T09:07:11.522Z,32.15
2024-03-04T09:09:38.567Z,32.40
2024-03-04T09:12:05.487Z,31.73
2024-03-04T09:14:32.089Z,33.28
2024-03-04T09:16:58.642Z,31.83
2024-03-04T09:19:25.162Z,32.67
2024-03-04T09:21:51.658Z,31.17
2024-03-04T09:24:18.231Z,30.75
2024-03-04T09:26:48.045Z,30.52
2024-03-04T09:29:14.586Z,31.20
2024-03-04T09:31:41.444Z,30.80
2024-03-04T09:34:08.220Z,30.93
2024-03-04T09:36:35.092Z,31.33
2024-03-04T09:39:01.596Z,30.20
2024-03-04T09:41:30.994Z,30.20
2024-03-04T09:43:58.780Z,32.13
2024-03-04T09:46:26.738Z,30.27
2024-03-04T09:48:54.141Z,31.75
2024-03-04T09:51:22.481Z,31.95
2024-03-04T09:53:51.926Z,30.38
2024-03-04T09:56:18.663Z,31.25
2024-03-04T09:58:46.367Z,31.83
2024-03-04T10:03:39.809Z,30.58
2024-03-04T10:06:07.460Z,31.75
2024-03-04T10:08:34.201Z,31.92
2024-03-04T10:11:01.005Z,32.37
2024-03-04T10:13:28.758Z,31.42
2024-03-04T10:15:55.313Z,30.38
2024-03-04T10:18:22.218Z,32.15
2024-03-04T10:20:49.169Z,31.77
2024-03-04T10:23:18.708Z,30.47
2024-03-04T10:25:45.269Z,32.25
2024-03-04T10:28:14.028Z,31.88
2024-03-04T10:30:40.610Z,31.48
2024-03-04T10:33:07.105Z,29.67
2024-03-04T10:35:33.724Z,30.10
2024-03-04T10:38:03.598Z,30.98
2024-03-04T10:40:40.410Z,31.38
2024-03-04T10:43:07.929Z,31.15
2024-03-04T10:45:35.572Z,30.02
2024-03-04T10:48:03.773Z,31.03
2024-03-04T10:50:30.912Z,31.15
2024-03-04T10:53:00.361Z,31.17
2024-03-04T10:55:29.295Z,31.98
2024-03-04T10:58:01.569Z,31.20
2024-03-04T11:00:31.209Z,31.60
2024-03-04T11:03:06.214Z,31.33
2024-03-04T11:05:35.002Z,30.83
2024-03-04T11:08:08.094Z,31.67
2024-03-04T11:10:39.342Z,31.67
2024-03-04T11:13:24.974Z,31.10
2024-03-04T11:16:21.685Z,31.63
2024-03-04T11:19:00.658Z,30.80
2024-03-04T11:21:28.434Z,32.13
2024-03-04T11:23:55.008Z,31.13
2024-03-04T11:26:24.034Z,29.93
2024-03-04T11:28:52.260Z,31.08
2024-03-04T11:31:29.142Z,30.30
2024-03-04T11:34:06.654Z,30.90
2024-03-04T11:36:36.546Z,30.88
2024-03-04T11:39:18.096Z,31.30
2024-03-04T11:41:48.827Z,29.08
2024-03-04T11:44:20.916Z,31.67
2024-03-04T11:46:47.566Z,31.48
2024-03-04T11:49:26.191Z,30.27
2024-03-04T11:52:15.485Z,31.17
2024-03-04T11:54:47.056Z,31.48
2024-03-04T11:57:14.769Z,31.90
2024-03-04T11:59:43.193Z,31.63
2024-03-04T12:02:13.551Z,30.60
2024-03-04T12:04:43.213Z,30.47
2024-03-04T12:07:10.053Z,31.35
2024-03-04T12:09:50.770Z,30.02
2024-03-04T12:12:23.370Z,27.90
2024-03-04T12:14:50.424Z,26.83
2024-03-04T12:17:17.092Z,27.63
2024-03-04T12:19:57.323Z,27.80
2024-03-04T12:22:33.116Z,26.73
2024-03-04T12:25:07.296Z,26.95
2024-03-04T12:27:35.318Z,26.73
2024-03-04T12:30:13.959Z,27.57
2024-03-04T12:32:42.283Z,26.58
2024-03-04T12:35:20.248Z,27.63
2024-03-04T12:37:49.905Z,27.10
2024-03-04T12:40:20.658Z,25.77
2024-03-04T12:43:04.391Z,24.80
2024-03-04T12:45:32.474Z,25.33
2024-03-04T12:47:59.684Z,24.38
2024-03-04T12:50:27.988Z,24.60
2024-03-04T12:52:55.811Z,24.02
2024-03-04T12:55:22.689Z,24.77
2024-03-04T12:57:49.556Z,24.70
2024-03-04T13:00:16.352Z,24.98
2024-03-04T13:02:46.938Z,23.73
2024-03-04T13:05:14.800Z,24.58
2024-03-04T13:07:42.187Z,24.17
2024-03-04T13:10:10.943Z,23.48
2024-03-04T13:12:42.339Z,23.58
2024-03-04T13:15:10.633Z,22.25
2024-03-04T13:17:38.690Z,24.27
2024-03-04T13:20:10.215Z,23.27
2024-03-04T13:22:49.059Z,22.20
2024-03-04T13:25:19.742Z,21.90
2024-03-04T13:27:51.619Z,23.13
2024-03-04T13:30:18.410Z,23.70
2024-03-04T13:32:47.580Z,22.10
2024-03-04T13:35:14.430Z,22.10
2024-03-04T13:37:41.167Z,23.48
2024-03-04T13:40:10.195Z,23.20
2024-03-04T13:42:37.030Z,21.73
2024-03-04T13:45:03.697Z,23.10
2024-03-04T13:47:30.289Z,22.42
2024-03-04T13:49:56.912Z,23.73
2024-03-04T13:52:23.556Z,23.30
2024-03-04T13:54:50.043Z,22.48
2024-03-04T13:57:16.856Z,23.33
2024-03-04T13:59:43.334Z,23.48
2024-03-04T14:02:10.940Z,22.65
2024-03-04T14:04:37.652Z,21.25
2024-03-04T14:07:07.415Z,21.40
2024-03-04T14:09:33.974Z,22.77
2024-03-04T14:12:00.920Z,22.00
2024-03-04T14:14:28.766Z,22.17
2024-03-04T14:16:55.357Z,22.73
2024-03-04T14:19:21.964Z,21.35
2024-03-04T14:21:48.438Z,21.20
2024-03-04T14:24:15.825Z,22.58
2024-03-04T14:26:42.266Z,21.05
2024-03-04T14:29:09.488Z,21.77
2024-03-04T14:31:36.059Z,20.77
2024-03-04T14:34:02.809Z,21.43
2024-03-04T14:36:29.987Z,21.48
2024-03-04T14:38:56.805Z,20.73
2024-03-04T14:41:23.329Z,20.80
2024-03-04T14:43:49.913Z,21.02
2024-03-04T14:46:17.152Z,20.57
2024-03-04T14:48:46.141Z,20.15
2024-03-04T14:51:13.368Z,20.05
2024-03-04T14:53:39.954Z,19.85
2024-03-04T14:56:07.219Z,20.38
2024-03-04T14:58:33.746Z,19.93
2024-03-04T15:01:00.774Z,21.30
2024-03-04T15:03:29.114Z,22.15
2024-03-04T15:05:55.843Z,21.38
2024-03-04T15:08:23.580Z,22.65
2024-03-04T15:10:51.405Z,21.50
2024-03-04T15:13:20.187Z,23.00
2024-03-04T15:15:46.736Z,22.48
2024-03-04T15:18:18.494Z,23.13
2024-03-04T15:20:48.799Z,23.27
2024-03-04T15:23:15.588Z,23.40
2024-03-04T15:25:42.675Z,24.80
2024-03-04T15:28:11.311Z,24.65
2024-03-04T15:30:37.936Z,24.95
2024-03-04T15:33:04.771Z,25.27
2024-03-04T15:35:31.284Z,26.23
2024-03-04T15:37:57.758Z,23.75
2024-03-04T15:40:24.278Z,25.33
2024-03-04T15:42:50.838Z,23.95
2024-03-04T15:45:17.414Z,24.52
2024-03-04T15:47:43.932Z,24.77
2024-03-04T15:50:16.809Z,24.15
2024-03-04T15:52:44.977Z,24.52
2024-03-04T15:55:14.768Z,24.85
2024-03-04T15:57:42.544Z,24.65
2024-03-04T16:00:14.762Z,21.87
2024-03-04T16:02:42.157Z,24.63
2024-03-04T16:05:09.741Z,23.75
2024-03-04T16:07:36.402Z,23.95
2024-03-04T16:10:06.678Z,24.35
2024-03-04T16:12:33.373Z,24.97
2024-03-04T16:14:59.808Z,24.83
2024-03-04T16:17:26.395Z,25.70
2024-03-04T16:19:53.105Z,26.58
2024-03-04T16:22:19.617Z,26.67
2024-03-04T16:24:46.141Z,25.43
2024-03-04T16:27:16.609Z,25.23
2024-03-04T16:29:43.150Z,25.25
2024-03-04T16:32:09.671Z,24.30
2024-03-04T16:34:36.251Z,25.02
2024-03-04T16:37:02.843Z,26.03
2024-03-04T16:39:29.323Z,25.00
2024-03-04T16:41:56.166Z,24.95
2024-03-04T16:44:22.990Z,23.73
2024-03-04T16:46:50.584Z,24.38
2024-03-04T16:49:18.284Z,22.93
2024-03-04T16:51:48.504Z,24.08
2024-03-04T16:54:15.680Z,23.27
2024-03-04T16:56:48.922Z,22.67
2024-03-04T16:59:16.156Z,24.73
2024-03-04T17:01:46.117Z,23.27
2024-03-04T17:04:14.989Z,24.05
2024-03-04T17:06:41.472Z,23.65
2024-03-04T17:09:08.051Z,23.25
2024-03-04T17:11:34.596Z,24.05
2024-03-04T17:14:01.051Z,23.67
2024-03-04T17:16:27.655Z,23.63
2024-03-04T17:18:54.158Z,22.60
2024-03-04T17:21:20.620Z,23.60
2024-03-04T17:23:47.152Z,23.30
2024-03-04T17:26:13.694Z,24.30
2024-03-04T17:28:40.269Z,23.42
2024-03-04T17:31:06.801Z,24.20
2024-03-04T17:33:35.138Z,23.55
2024-03-04T17:36:01.681Z,23.00
2024-03-04T17:38:28.129Z,22.50
2024-03-04T17:40:54.755Z,22.75
2024-03-04T17:43:21.371Z,24.23
2024-03-04T17:45:47.924Z,23.73
2024-03-04T17:48:14.705Z,23.70
2024-03-04T17:50:41.881Z,22.90
2024-03-04T17:53:08.562Z,23.83
2024-03-04T17:55:35.129Z,23.02
2024-03-04T17:58:01.680Z,21.73
2024-03-04T18:00:28.602Z,23.60
2024-03-04T18:02:55.351Z,22.30
2024-03-04T18:05:21.895Z,21.60
2024-03-04T18:07:49.404Z,22.35
2024-03-04T18:10:16.403Z,23.05
2024-03-04T18:12:43.205Z,22.85
2024-03-04T18:15:09.850Z,22.23
2024-03-04T18:17:36.999Z,22.88
2024-03-04T18:20:04.216Z,22.90
2024-03-04T18:22:31.165Z,22.48
2024-03-04T18:24:57.700Z,22.45
2024-03-04T18:27:24.144Z,21.90
2024-03-04T18:29:50.634Z,23.23
2024-03-04T18:32:17.118Z,22.45
2024-03-04T18:34:43.869Z,22.17
2024-03-04T18:37:10.469Z,21.98
2024-03-04T18:39:36.998Z,22.37
2024-03-04T18:42:03.678Z,21.88
2024-03-04T18:44:30.250Z,22.65
2024-03-04T18:46:56.921Z,22.15
2024-03-04T18:49:23.528Z,21.10
2024-03-04T18:51:50.085Z,23.63
2024-03-04T18:54:18.486Z,22.98
2024-03-04T18:56:45.306Z,23.27
2024-03-04T18:59:11.891Z,23.58
2024-03-04T19:01:38.453Z,22.80
2024-03-04T19:04:05.070Z,23.17
2024-03-04T19:06:31.553Z,23.67
2024-03-04T19:08:58.012Z,25.73
2024-03-04T19:11:24.590Z,24.63
2024-03-04T19:13:51.211Z,25.00
2024-03-04T19:16:17.941Z,25.00
2024-03-04T19:18:44.391Z,26.33
2024-03-04T19:21:20.881Z,27.15
2024-03-04T19:23:47.501Z,25.70
2024-03-04T19:26:21.148Z,27.15
2024-03-04T19:28:49.358Z,26.57
2024-03-04T19:31:23.655Z,28.15
2024-03-04T19:33:53.509Z,27.23
2024-03-04T19:36:21.158Z,27.70
2024-03-04T19:38:48.378Z,28.05
2024-03-04T19:41:18.846Z,28.70
2024-03-04T19:43:45.443Z,28.92
2024-03-04T19:46:23.461Z,28.25
2024-03-04T19:48:51.672Z,28.23
2024-03-04T19:51:20.248Z,29.77
2024-03-04T19:53:46.773Z,26.87
2024-03-04T19:56:13.573Z,29.48
2024-03-04T19:58:41.438Z,29.83
2024-03-04T20:01:11.005Z,29.50
2024-03-04T20:03:38.101Z,28.63
2024-03-04T20:06:05.034Z,28.23
2024-03-04T20:08:32.228Z,28.67
2024-03-04T20:10:59.435Z,28.92
2024-03-04T20:13:27.034Z,29.45
2024-03-04T20:15:53.646Z,28.95
2024-03-04T20:18:20.548Z,28.60
2024-03-04T20:20:47.459Z,27.70
2024-03-04T20:23:14.139Z,28.50
2024-03-04T20:25:41.105Z,30.52
2024-03-04T20:28:10.169Z,30.85
2024-03-04T20:30:40.563Z,28.77
2024-03-04T20:33:11.317Z,30.60
2024-03-04T20:35:39.708Z,28.58
2024-03-04T20:38:07.763Z,31.80
2024-03-04T20:40:35.152Z,32.25
2024-03-04T20:43:02.751Z,30.53
2024-03-04T20:45:29.541Z,30.27
2024-03-04T20:47:56.464Z,29.75
2024-03-04T20:50:25.407Z,29.67
2024-03-04T20:52:52.983Z,31.08
2024-03-04T20:55:20.057Z,30.37
2024-03-04T20:57:47.239Z,30.02
2024-03-04T21:00:16.210Z,30.95
2024-03-04T21:02:47.611Z,29.67
2024-03-04T21:05:15.972Z,30.85
2024-03-04T21:07:43.572Z,32.33
2024-03-04T21:10:14.078Z,30.90
2024-03-04T21:12:43.752Z,30.77
2024-03-04T21:15:11.648Z,31.08
2024-03-04T21:17:41.776Z,31.90
2024-03-04T21:20:12.075Z,31.10
2024-03-04T21:22:39.159Z,31.55
2024-03-04T21:25:07.931Z,32.83
2024-03-04T21:27:36.692Z,30.95
2024-03-04T21:30:04.713Z,31.85
2024-03-04T21:32:31.206Z,31.33
2024-03-04T21:34:57.665Z,33.42
2024-03-04T21:37:28.015Z,32.40
2024-03-04T21:39:58.343Z,33.55
2024-03-04T21:42:24.852Z,31.25
2024-03-04T21:44:51.376Z,31.57
2024-03-04T21:47:17.915Z,32.28
2024-03-04T21:49:44.440Z,32.20
2024-03-04T21:52:10.927Z,33.70
2024-03-04T21:54:37.526Z,32.33
2024-03-04T21:57:04.217Z,30.90
2024-03-04T21:59:30.716Z,33.17
2024-03-04T22:01:57.330Z,33.28
2024-03-04T22:04:23.831Z,33.95
2024-03-04T22:06:51.466Z,31.45
2024-03-04T22:09:21.120Z,30.73
2024-03-04T22:11:49.265Z,31.95
2024-03-04T22:14:17.084Z,31.95
2024-03-04T22:16:44.561Z,32.38
2024-03-04T22:19:12.086Z,31.83
2024-03-04T22:21:39.665Z,32.20
2024-03-04T22:24:09.988Z,31.38
2024-03-04T22:26:37.101Z,31.48
2024-03-04T22:29:07.828Z,32.90
2024-03-04T22:31:35.027Z,33.22
2024-03-04T22:34:02.409Z,34.90
2024-03-04T22:36:28.951Z,34.85
2024-03-04T22:38:55.447Z,33.85
2024-03-04T22:41:22.754Z,34.00
2024-03-04T22:43:51.030Z,33.88
2024-03-04T22:46:18.667Z,33.40
2024-03-04T22:48:45.257Z,33.70
2024-03-04T22:51:11.716Z,34.47
2024-03-04T22:53:38.188Z,35.30
2024-03-04T22:56:05.503Z,34.67
2024-03-04T22:58:32.350Z,35.50
2024-03-04T23:01:04.828Z,34.58
2024-03-04T23:03:31.511Z,36.55
2024-03-04T23:05:58.556Z,35.50
2024-03-04T23:08:25.155Z,38.13
2024-03-04T23:10:51.759Z,38.80
2024-03-04T23:13:18.567Z,40.00
2024-03-04T23:15:45.097Z,39.75
2024-03-04T23:18:12.907Z,38.83
2024-03-04T23:20:39.551Z,40.53
2024-03-04T23:23:07.111Z,41.67
2024-03-04T23:25:34.135Z,46.38
2024-03-04T23:28:00.829Z,48.67
2024-03-04T23:30:27.761Z,45.65
2024-03-04T23:32:54.533Z,46.40
2024-03-04T23:35:21.178Z,45.80
2024-03-04T23:37:47.725Z,45.67
2024-03-04T23:40:15.432Z,46.15
2024-03-04T23:42:43.610Z,49.22
2024-03-04T23:45:13.438Z,45.97
2024-03-04T23:47:40.996Z,48.63
2024-03-04T23:50:08.810Z,47.38
2024-03-04T23:52:37.794Z,47.15
2024-03-04T23:55:08.266Z,53.67
2024-03-04T23:57:36.041Z,54.67
